sensor_id;sensor_type;location;lat;lon;timestamp;P1;durP1;ratioP1;P2;durP2;ratioP2
82244;SDS011;71849;50.096;14.458;2024-03-02T00:02:00;46.70;;;27.02;;
82244;SDS011;71849;50.096;14.458;2024-03-02T00:07:00;37.15;;;22.13;;
82244;SDS011;71849;50.096;14.458;2024-03-02T00:09:29;41.22;;;23.15;;
82244;SDS011;71849;50.096;14.458;2024-03-02T00:11:57;43.22;;;23.58;;
82244;SDS011;71849;50.096;14.458;2024-03-02T00:14:30;42.33;;;26.08;;
82244;SDS011;71849;50.096;14.458;2024-03-02T00:16:58;40.70;;;22.88;;
82244;SDS011;71849;50.096;14.458;2024-03-02T00:19:27;38.95;;;21.88;;
82244;SDS011;71849;50.096;14.458;2024-03-02T00:21:56;38.33;;;22.10;;
82244;SDS011;71849;50.096;14.458;2024-03-02T00:24:30;39.85;;;23.58;;
82244;SDS011;71849;50.096;14.458;2024-03-02T00:27:00;40.28;;;24.88;;
82244;SDS011;71849;50.096;14.458;2024-03-02T00:29:34;40.78;;;23.55;;
82244;SDS011;71849;50.096;14.458;2024-03-02T00:32:07;46.35;;;23.58;;
82244;SDS011;71849;50.096;14.458;2024-03-02T00:34:40;45.50;;;26.45;;
82244;SDS011;71849;50.096;14.458;2024-03-02T00:37:09;41.92;;;23.50;;
82244;SDS011;71849;50.096;14.458;2024-03-02T00:39:38;44.53;;;24.05;;
82244;SDS011;71849;50.096;14.458;2024-03-02T00:42:09;46.55;;;25.67;;
82244;SDS011;71849;50.096;14.458;2024-03-02T00:44:42;48.53;;;27.55;;
82244;SDS011;71849;50.096;14.458;2024-03-02T00:47:12;50.00;;;27.58;;
82244;SDS011;71849;50.096;14.458;2024-03-02T00:49:40;49.90;;;26.30;;
82244;SDS011;71849;50.096;14.458;2024-03-02T00:52:09;46.88;;;27.08;;
82244;SDS011;71849;50.096;14.458;2024-03-02T00:54:38;53.53;;;29.40;;
82244;SDS011;71849;50.096;14.458;2024-03-02T00:57:10;47.78;;;26.65;;
82244;SDS011;71849;50.096;14.458;2024-03-02T00:59:41;53.50;;;26.83;;
82244;SDS011;71849;50.096;14.458;2024-03-02T01:02:11;50.17;;;27.00;;
82244;SDS011;71849;50.096;14.458;2024-03-02T01:04:40;46.42;;;26.02;;
82244;SDS011;71849;50.096;14.458;2024-03-02T01:07:09;49.03;;;25.40;;
82244;SDS011;71849;50.096;14.458;2024-03-02T01:09:37;48.38;;;26.42;;
82244;SDS011;71849;50.096;14.458;2024-03-02T01:12:06;48.00;;;26.30;;
82244;SDS011;71849;50.096;14.458;2024-03-02T01:14:35;41.47;;;23.85;;
82244;SDS011;71849;50.096;14.458;2024-03-02T01:17:06;43.65;;;23.60;;
82244;SDS011;71849;50.096;14.458;2024-03-02T01:19:35;42.30;;;23.80;;
82244;SDS011;71849;50.096;14.458;2024-03-02T01:22:04;47.80;;;25.25;;
82244;SDS011;71849;50.096;14.458;2024-03-02T01:24:33;48.90;;;25.15;;
82244;SDS011;71849;50.096;14.458;2024-03-02T01:27:01;45.58;;;23.88;;
82244;SDS011;71849;50.096;14.458;2024-03-02T01:29:30;45.45;;;23.55;;
82244;SDS011;71849;50.096;14.458;2024-03-02T01:31:58;41.80;;;23.83;;
82244;SDS011;71849;50.096;14.458;2024-03-02T01:34:29;44.33;;;23.45;;
82244;SDS011;71849;50.096;14.458;2024-03-02T01:36:58;44.30;;;24.48;;
82244;SDS011;71849;50.096;14.458;2024-03-02T01:39:26;48.20;;;24.35;;
82244;SDS011;71849;50.096;14.458;2024-03-02T01:41:55;43.28;;;23.02;;
82244;SDS011;71849;50.096;14.458;2024-03-02T01:44:23;48.20;;;24.77;;
82244;SDS011;71849;50.096;14.458;2024-03-02T01:46:52;45.78;;;23.50;;
82244;SDS011;71849;50.096;14.458;2024-03-02T01:49:20;40.63;;;22.90;;
82244;SDS011;71849;50.096;14.458;2024-03-02T01:51:52;47.60;;;25.33;;
82244;SDS011;71849;50.096;14.458;2024-03-02T01:54:20;46.65;;;26.20;;
82244;SDS011;71849;50.096;14.458;2024-03-02T01:56:48;39.90;;;22.25;;
82244;SDS011;71849;50.096;14.458;2024-03-02T01:59:17;45.22;;;23.83;;
82244;SDS011;71849;50.096;14.458;2024-03-02T02:01:46;43.10;;;24.33;;
82244;SDS011;71849;50.096;14.458;2024-03-02T02:04:14;48.13;;;25.08;;
82244;SDS011;71849;50.096;14.458;2024-03-02T02:06:43;45.55;;;23.23;;
82244;SDS011;71849;50.096;14.458;2024-03-02T02:09:14;42.88;;;22.70;;
82244;SDS011;71849;50.096;14.458;2024-03-02T02:11:43;47.22;;;23.52;;
82244;SDS011;71849;50.096;14.458;2024-03-02T02:14:12;46.17;;;23.83;;
82244;SDS011;71849;50.096;14.458;2024-03-02T02:16:40;42.75;;;24.73;;
82244;SDS011;71849;50.096;14.458;2024-03-02T02:19:09;43.55;;;23.42;;
82244;SDS011;71849;50.096;14.458;2024-03-02T02:21:40;43.75;;;22.90;;
82244;SDS011;71849;50.096;14.458;2024-03-02T02:24:10;41.60;;;22.83;;
82244;SDS011;71849;50.096;14.458;2024-03-02T02:26:38;44.80;;;25.55;;
82244;SDS011;71849;50.096;14.458;2024-03-02T02:29:07;41.10;;;23.45;;
82244;SDS011;71849;50.096;14.458;2024-03-02T02:31:38;41.13;;;22.00;;
82244;SDS011;71849;50.096;14.458;2024-03-02T02:34:07;44.53;;;23.35;;
82244;SDS011;71849;50.096;14.458;2024-03-02T02:36:37;44.55;;;23.52;;
82244;SDS011;71849;50.096;14.458;2024-03-02T02:39:10;44.70;;;23.48;;
82244;SDS011;71849;50.096;14.458;2024-03-02T02:41:42;43.75;;;23.83;;
82244;SDS011;71849;50.096;14.458;2024-03-02T02:44:11;44.03;;;23.42;;
82244;SDS011;71849;50.096;14.458;2024-03-02T02:46:39;48.50;;;23.45;;
82244;SDS011;71849;50.096;14.458;2024-03-02T02:49:08;45.08;;;23.52;;
82244;SDS011;71849;50.096;14.458;2024-03-02T02:51:36;48.15;;;23.42;;
82244;SDS011;71849;50.096;14.458;2024-03-02T02:54:07;46.25;;;24.13;;
82244;SDS011;71849;50.096;14.458;2024-03-02T02:56:36;42.33;;;23.98;;
82244;SDS011;71849;50.096;14.458;2024-03-02T02:59:05;44.60;;;23.55;;
82244;SDS011;71849;50.096;14.458;2024-03-02T03:01:33;40.25;;;22.35;;
82244;SDS011;71849;50.096;14.458;2024-03-02T03:04:02;48.28;;;22.70;;
82244;SDS011;71849;50.096;14.458;2024-03-02T03:06:30;44.67;;;24.77;;
82244;SDS011;71849;50.096;14.458;2024-03-02T03:08:59;44.35;;;23.20;;
82244;SDS011;71849;50.096;14.458;2024-03-02T03:11:30;44.83;;;24.85;;
82244;SDS011;71849;50.096;14.458;2024-03-02T03:13:58;46.40;;;24.00;;
82244;SDS011;71849;50.096;14.458;2024-03-02T03:16:27;42.03;;;22.00;;
82244;SDS011;71849;50.096;14.458;2024-03-02T03:18:55;44.35;;;23.50;;
82244;SDS011;71849;50.096;14.458;2024-03-02T03:21:24;42.35;;;22.95;;
82244;SDS011;71849;50.096;14.458;2024-03-02T03:23:52;42.47;;;20.58;;
82244;SDS011;71849;50.096;14.458;2024-03-02T03:26:21;38.90;;;19.98;;
82244;SDS011;71849;50.096;14.458;2024-03-02T03:28:52;36.70;;;18.77;;
82244;SDS011;71849;50.096;14.458;2024-03-02T03:31:20;43.42;;;18.35;;
82244;SDS011;71849;50.096;14.458;2024-03-02T03:33:49;38.35;;;17.73;;
82244;SDS011;71849;50.096;14.458;2024-03-02T03:36:17;37.40;;;17.55;;
82244;SDS011;71849;50.096;14.458;2024-03-02T03:38:46;35.90;;;17.50;;
82244;SDS011;71849;50.096;14.458;2024-03-02T03:41:14;34.88;;;16.98;;
82244;SDS011;71849;50.096;14.458;2024-03-02T03:43:43;35.30;;;16.73;;
82244;SDS011;71849;50.096;14.458;2024-03-02T03:46:14;32.92;;;16.75;;
82244;SDS011;71849;50.096;14.458;2024-03-02T03:48:42;29.83;;;14.18;;
82244;SDS011;71849;50.096;14.458;2024-03-02T03:51:11;27.13;;;14.25;;
82244;SDS011;71849;50.096;14.458;2024-03-02T03:53:39;27.00;;;13.07;;
82244;SDS011;71849;50.096;14.458;2024-03-02T03:56:08;32.17;;;14.23;;
82244;SDS011;71849;50.096;14.458;2024-03-02T03:58:36;26.60;;;13.30;;
82244;SDS011;71849;50.096;14.458;2024-03-02T04:01:05;27.20;;;13.65;;
82244;SDS011;71849;50.096;14.458;2024-03-02T04:03:36;25.10;;;12.80;;
82244;SDS011;71849;50.096;14.458;2024-03-02T04:06:04;27.00;;;13.02;;
82244;SDS011;71849;50.096;14.458;2024-03-02T04:08:33;26.85;;;13.48;;
82244;SDS011;71849;50.096;14.458;2024-03-02T04:11:01;25.85;;;12.95;;
82244;SDS011;71849;50.096;14.458;2024-03-02T04:13:32;24.15;;;12.45;;
82244;SDS011;71849;50.096;14.458;2024-03-02T04:16:01;25.70;;;13.40;;
82244;SDS011;71849;50.096;14.458;2024-03-02T04:18:30;26.90;;;11.88;;
82244;SDS011;71849;50.096;14.458;2024-03-02T04:21:01;25.33;;;12.23;;
82244;SDS011;71849;50.096;14.458;2024-03-02T04:23:30;25.58;;;12.32;;
82244;SDS011;71849;50.096;14.458;2024-03-02T04:25:58;24.73;;;13.60;;
82244;SDS011;71849;50.096;14.458;2024-03-02T04:28:27;23.00;;;12.25;;
82244;SDS011;71849;50.096;14.458;2024-03-02T04:30:55;23.85;;;11.68;;
82244;SDS011;71849;50.096;14.458;2024-03-02T04:33:23;22.30;;;12.18;;
82244;SDS011;71849;50.096;14.458;2024-03-02T04:35:52;22.30;;;12.10;;
82244;SDS011;71849;50.096;14.458;2024-03-02T04:38:23;21.80;;;11.98;;
82244;SDS011;71849;50.096;14.458;2024-03-02T04:40:51;23.58;;;10.60;;
82244;SDS011;71849;50.096;14.458;2024-03-02T04:43:20;24.08;;;10.88;;
82244;SDS011;71849;50.096;14.458;2024-03-02T04:45:48;24.50;;;11.63;;
82244;SDS011;71849;50.096;14.458;2024-03-02T04:48:17;23.95;;;12.20;;
82244;SDS011;71849;50.096;14.458;2024-03-02T04:53:15;25.08;;;13.23;;
82244;SDS011;71849;50.096;14.458;2024-03-02T04:55:46;18.42;;;9.88;;
82244;SDS011;71849;50.096;14.458;2024-03-02T04:58:45;24.73;;;12.48;;
82244;SDS011;71849;50.096;14.458;2024-03-02T05:01:14;22.15;;;10.75;;
82244;SDS011;71849;50.096;14.458;2024-03-02T05:03:42;21.27;;;10.68;;
82244;SDS011;71849;50.096;14.458;2024-03-02T05:06:11;21.33;;;11.15;;
82244;SDS011;71849;50.096;14.458;2024-03-02T05:08:39;22.38;;;11.45;;
82244;SDS011;71849;50.096;14.458;2024-03-02T05:11:12;24.17;;;11.20;;
82244;SDS011;71849;50.096;14.458;2024-03-02T05:13:53;24.45;;;11.57;;
82244;SDS011;71849;50.096;14.458;2024-03-02T05:16:22;21.67;;;11.85;;
82244;SDS011;71849;50.096;14.458;2024-03-02T05:18:50;23.65;;;11.13;;
82244;SDS011;71849;50.096;14.458;2024-03-02T05:21:18;24.15;;;12.32;;
82244;SDS011;71849;50.096;14.458;2024-03-02T05:23:47;22.10;;;10.18;;
82244;SDS011;71849;50.096;14.458;2024-03-02T05:26:18;20.55;;;11.52;;
82244;SDS011;71849;50.096;14.458;2024-03-02T05:28:46;20.58;;;11.95;;
82244;SDS011;71849;50.096;14.458;2024-03-02T05:31:15;22.98;;;11.15;;
82244;SDS011;71849;50.096;14.458;2024-03-02T05:33:44;22.27;;;10.63;;
82244;SDS011;71849;50.096;14.458;2024-03-02T05:36:12;21.92;;;10.35;;
82244;SDS011;71849;50.096;14.458;2024-03-02T05:38:41;21.92;;;10.40;;
82244;SDS011;71849;50.096;14.458;2024-03-02T05:41:09;21.45;;;11.20;;
82244;SDS011;71849;50.096;14.458;2024-03-02T05:43:40;23.95;;;10.80;;
82244;SDS011;71849;50.096;14.458;2024-03-02T05:46:09;19.60;;;10.40;;
82244;SDS011;71849;50.096;14.458;2024-03-02T05:48:37;22.95;;;11.45;;
82244;SDS011;71849;50.096;14.458;2024-03-02T05:51:06;23.05;;;11.35;;
82244;SDS011;71849;50.096;14.458;2024-03-02T05:53:34;25.10;;;12.00;;
82244;SDS011;71849;50.096;14.458;2024-03-02T05:56:04;23.38;;;11.35;;
82244;SDS011;71849;50.096;14.458;2024-03-02T05:58:33;23.17;;;11.35;;
82244;SDS011;71849;50.096;14.458;2024-03-02T06:03:47;20.30;;;10.32;;
82244;SDS011;71849;50.096;14.458;2024-03-02T06:06:16;23.58;;;11.00;;
82244;SDS011;71849;50.096;14.458;2024-03-02T06:08:44;23.55;;;11.80;;
82244;SDS011;71849;50.096;14.458;2024-03-02T06:11:13;21.25;;;10.02;;
82244;SDS011;71849;50.096;14.458;2024-03-02T06:13:41;21.88;;;11.00;;
82244;SDS011;71849;50.096;14.458;2024-03-02T06:16:10;23.40;;;10.77;;
82244;SDS011;71849;50.096;14.458;2024-03-02T06:18:41;20.92;;;10.68;;
82244;SDS011;71849;50.096;14.458;2024-03-02T06:21:09;21.80;;;10.45;;
82244;SDS011;71849;50.096;14.458;2024-03-02T06:23:38;22.30;;;11.00;;
82244;SDS011;71849;50.096;14.458;2024-03-02T06:26:06;23.80;;;12.10;;
82244;SDS011;71849;50.096;14.458;2024-03-02T06:28:35;25.10;;;11.02;;
82244;SDS011;71849;50.096;14.458;2024-03-02T06:31:06;22.90;;;11.32;;
82244;SDS011;71849;50.096;14.458;2024-03-02T06:33:35;22.15;;;10.95;;
82244;SDS011;71849;50.096;14.458;2024-03-02T06:36:06;21.73;;;11.43;;
82244;SDS011;71849;50.096;14.458;2024-03-02T06:38:37;21.58;;;11.52;;
82244;SDS011;71849;50.096;14.458;2024-03-02T06:41:05;24.58;;;12.35;;
82244;SDS011;71849;50.096;14.458;2024-03-02T06:43:34;25.13;;;10.68;;
82244;SDS011;71849;50.096;14.458;2024-03-02T06:46:03;22.60;;;10.95;;
82244;SDS011;71849;50.096;14.458;2024-03-02T06:48:37;21.08;;;10.90;;
82244;SDS011;71849;50.096;14.458;2024-03-02T06:51:11;24.23;;;11.52;;
82244;SDS011;71849;50.096;14.458;2024-03-02T06:53:40;24.67;;;11.35;;
82244;SDS011;71849;50.096;14.458;2024-03-02T06:56:08;24.13;;;11.68;;
82244;SDS011;71849;50.096;14.458;2024-03-02T06:58:37;21.95;;;11.70;;
82244;SDS011;71849;50.096;14.458;2024-03-02T07:01:05;23.80;;;11.43;;
82244;SDS011;71849;50.096;14.458;2024-03-02T07:03:35;21.23;;;10.77;;
82244;SDS011;71849;50.096;14.458;2024-03-02T07:06:04;26.08;;;11.57;;
82244;SDS011;71849;50.096;14.458;2024-03-02T07:08:36;25.13;;;11.93;;
82244;SDS011;71849;50.096;14.458;2024-03-02T07:11:04;24.67;;;11.88;;
82244;SDS011;71849;50.096;14.458;2024-03-02T07:13:32;26.55;;;13.52;;
82244;SDS011;71849;50.096;14.458;2024-03-02T07:16:01;27.38;;;12.98;;
82244;SDS011;71849;50.096;14.458;2024-03-02T07:18:49;25.48;;;12.15;;
82244;SDS011;71849;50.096;14.458;2024-03-02T07:21:20;24.48;;;11.65;;
82244;SDS011;71849;50.096;14.458;2024-03-02T07:23:51;27.65;;;13.00;;
82244;SDS011;71849;50.096;14.458;2024-03-02T07:26:19;25.25;;;12.70;;
82244;SDS011;71849;50.096;14.458;2024-03-02T07:28:48;33.28;;;18.20;;
82244;SDS011;71849;50.096;14.458;2024-03-02T07:31:17;25.35;;;13.75;;
82244;SDS011;71849;50.096;14.458;2024-03-02T07:33:45;27.60;;;12.20;;
82244;SDS011;71849;50.096;14.458;2024-03-02T07:36:14;25.10;;;12.52;;
82244;SDS011;71849;50.096;14.458;2024-03-02T07:41:18;24.70;;;11.60;;
82244;SDS011;71849;50.096;14.458;2024-03-02T07:43:46;23.60;;;11.98;;
82244;SDS011;71849;50.096;14.458;2024-03-02T07:46:14;32.55;;;13.63;;
82244;SDS011;71849;50.096;14.458;2024-03-02T07:48:43;24.20;;;12.15;;
82244;SDS011;71849;50.096;14.458;2024-03-02T07:51:13;23.50;;;11.93;;
82244;SDS011;71849;50.096;14.458;2024-03-02T07:53:42;24.00;;;12.32;;
82244;SDS011;71849;50.096;14.458;2024-03-02T07:56:10;26.15;;;11.77;;
82244;SDS011;71849;50.096;14.458;2024-03-02T07:58:41;26.63;;;12.70;;
82244;SDS011;71849;50.096;14.458;2024-03-02T08:01:11;25.83;;;12.05;;
82244;SDS011;71849;50.096;14.458;2024-03-02T08:03:43;24.05;;;12.45;;
82244;SDS011;71849;50.096;14.458;2024-03-02T08:06:13;22.75;;;11.50;;
82244;SDS011;71849;50.096;14.458;2024-03-02T08:08:42;26.75;;;14.18;;
82244;SDS011;71849;50.096;14.458;2024-03-02T08:11:13;24.02;;;12.00;;
82244;SDS011;71849;50.096;14.458;2024-03-02T08:13:44;22.55;;;11.60;;
82244;SDS011;71849;50.096;14.458;2024-03-02T08:16:13;23.73;;;12.13;;
82244;SDS011;71849;50.096;14.458;2024-03-02T08:18:44;23.48;;;12.55;;
82244;SDS011;71849;50.096;14.458;2024-03-02T08:21:13;20.90;;;10.63;;
82244;SDS011;71849;50.096;14.458;2024-03-02T08:23:42;19.67;;;10.55;;
82244;SDS011;71849;50.096;14.458;2024-03-02T08:26:10;23.35;;;12.35;;
82244;SDS011;71849;50.096;14.458;2024-03-02T08:28:39;23.25;;;11.18;;
82244;SDS011;71849;50.096;14.458;2024-03-02T08:31:11;23.42;;;11.80;;
82244;SDS011;71849;50.096;14.458;2024-03-02T08:33:39;22.67;;;11.65;;
82244;SDS011;71849;50.096;14.458;2024-03-02T08:36:08;24.52;;;11.57;;
82244;SDS011;71849;50.096;14.458;2024-03-02T08:38:37;29.15;;;15.23;;
82244;SDS011;71849;50.096;14.458;2024-03-02T08:41:06;22.73;;;11.52;;
82244;SDS011;71849;50.096;14.458;2024-03-02T08:43:35;25.50;;;11.80;;
82244;SDS011;71849;50.096;14.458;2024-03-02T08:46:03;21.35;;;11.02;;
82244;SDS011;71849;50.096;14.458;2024-03-02T08:48:34;21.63;;;10.48;;
82244;SDS011;71849;50.096;14.458;2024-03-02T08:51:03;25.27;;;11.30;;
82244;SDS011;71849;50.096;14.458;2024-03-02T08:53:33;20.40;;;10.25;;
82244;SDS011;71849;50.096;14.458;2024-03-02T08:56:01;24.48;;;11.15;;
82244;SDS011;71849;50.096;14.458;2024-03-02T08:58:30;22.65;;;10.50;;
82244;SDS011;71849;50.096;14.458;2024-03-02T09:00:59;24.63;;;11.27;;
82244;SDS011;71849;50.096;14.458;2024-03-02T09:03:28;20.60;;;10.07;;
82244;SDS011;71849;50.096;14.458;2024-03-02T09:06:01;24.02;;;11.38;;
82244;SDS011;71849;50.096;14.458;2024-03-02T09:08:29;22.83;;;11.30;;
82244;SDS011;71849;50.096;14.458;2024-03-02T09:10:58;18.17;;;8.88;;
82244;SDS011;71849;50.096;14.458;2024-03-02T09:13:27;23.45;;;14.25;;
82244;SDS011;71849;50.096;14.458;2024-03-02T09:15:55;33.90;;;18.88;;
82244;SDS011;71849;50.096;14.458;2024-03-02T09:18:24;21.40;;;10.25;;
82244;SDS011;71849;50.096;14.458;2024-03-02T09:20:52;19.15;;;9.50;;
82244;SDS011;71849;50.096;14.458;2024-03-02T09:23:23;18.58;;;9.55;;
82244;SDS011;71849;50.096;14.458;2024-03-02T09:25:52;20.77;;;10.10;;
82244;SDS011;71849;50.096;14.458;2024-03-02T09:28:20;21.80;;;9.48;;
82244;SDS011;71849;50.096;14.458;2024-03-02T09:30:49;19.23;;;9.77;;
82244;SDS011;71849;50.096;14.458;2024-03-02T09:33:17;20.23;;;9.90;;
82244;SDS011;71849;50.096;14.458;2024-03-02T09:35:46;17.83;;;9.38;;
82244;SDS011;71849;50.096;14.458;2024-03-02T09:38:14;31.02;;;16.25;;
82244;SDS011;71849;50.096;14.458;2024-03-02T09:40:45;18.10;;;9.52;;
82244;SDS011;71849;50.096;14.458;2024-03-02T09:43:14;18.17;;;9.93;;
82244;SDS011;71849;50.096;14.458;2024-03-02T09:45:43;21.30;;;10.55;;
82244;SDS011;71849;50.096;14.458;2024-03-02T09:50:43;22.33;;;9.75;;
82244;SDS011;71849;50.096;14.458;2024-03-02T09:53:12;20.30;;;10.27;;
82244;SDS011;71849;50.096;14.458;2024-03-02T09:55:48;23.25;;;10.60;;
82244;SDS011;71849;50.096;14.458;2024-03-02T09:58:16;19.67;;;10.23;;
82244;SDS011;71849;50.096;14.458;2024-03-02T10:00:45;17.08;;;9.68;;
82244;SDS011;71849;50.096;14.458;2024-03-02T10:03:14;18.77;;;8.95;;
82244;SDS011;71849;50.096;14.458;2024-03-02T10:05:43;15.68;;;8.50;;
82244;SDS011;71849;50.096;14.458;2024-03-02T10:08:11;19.80;;;9.95;;
82244;SDS011;71849;50.096;14.458;2024-03-02T10:10:40;25.02;;;12.48;;
82244;SDS011;71849;50.096;14.458;2024-03-02T10:13:12;21.45;;;10.40;;
82244;SDS011;71849;50.096;14.458;2024-03-02T10:15:43;18.02;;;8.93;;
82244;SDS011;71849;50.096;14.458;2024-03-02T10:18:12;18.70;;;9.30;;
82244;SDS011;71849;50.096;14.458;2024-03-02T10:20:41;20.58;;;9.85;;
82244;SDS011;71849;50.096;14.458;2024-03-02T10:23:10;16.98;;;9.10;;
82244;SDS011;71849;50.096;14.458;2024-03-02T10:25:39;24.27;;;10.23;;
82244;SDS011;71849;50.096;14.458;2024-03-02T10:28:08;18.48;;;9.40;;
82244;SDS011;71849;50.096;14.458;2024-03-02T10:30:40;21.35;;;10.85;;
82244;SDS011;71849;50.096;14.458;2024-03-02T10:33:08;19.38;;;8.70;;
82244;SDS011;71849;50.096;14.458;2024-03-02T10:35:37;19.35;;;9.90;;
82244;SDS011;71849;50.096;14.458;2024-03-02T10:38:10;19.85;;;9.05;;
82244;SDS011;71849;50.096;14.458;2024-03-02T10:40:39;19.52;;;10.02;;
82244;SDS011;71849;50.096;14.458;2024-03-02T10:43:08;23.42;;;11.43;;
82244;SDS011;71849;50.096;14.458;2024-03-02T10:45:40;22.23;;;10.10;;
82244;SDS011;71849;50.096;14.458;2024-03-02T10:48:08;20.77;;;10.27;;
82244;SDS011;71849;50.096;14.458;2024-03-02T10:50:37;18.40;;;9.65;;
82244;SDS011;71849;50.096;14.458;2024-03-02T10:53:06;19.80;;;9.85;;
82244;SDS011;71849;50.096;14.458;2024-03-02T10:55:34;19.50;;;9.02;;
82244;SDS011;71849;50.096;14.458;2024-03-02T10:58:04;17.90;;;8.85;;
82244;SDS011;71849;50.096;14.458;2024-03-02T11:00:35;17.73;;;8.88;;
82244;SDS011;71849;50.096;14.458;2024-03-02T11:03:07;19.73;;;10.18;;
82244;SDS011;71849;50.096;14.458;2024-03-02T11:05:38;20.98;;;9.77;;
82244;SDS011;71849;50.096;14.458;2024-03-02T11:08:12;18.65;;;8.43;;
82244;SDS011;71849;50.096;14.458;2024-03-02T11:10:45;19.63;;;9.25;;
82244;SDS011;71849;50.096;14.458;2024-03-02T11:13:20;22.35;;;10.15;;
82244;SDS011;71849;50.096;14.458;2024-03-02T11:15:56;26.92;;;12.63;;
82244;SDS011;71849;50.096;14.458;2024-03-02T11:18:31;15.30;;;8.38;;
82244;SDS011;71849;50.096;14.458;2024-03-02T11:21:01;17.67;;;9.23;;
82244;SDS011;71849;50.096;14.458;2024-03-02T11:23:31;20.00;;;9.18;;
82244;SDS011;71849;50.096;14.458;2024-03-02T11:28:48;15.23;;;8.68;;
82244;SDS011;71849;50.096;14.458;2024-03-02T11:31:19;15.15;;;8.50;;
82244;SDS011;71849;50.096;14.458;2024-03-02T11:33:48;16.80;;;9.07;;
82244;SDS011;71849;50.096;14.458;2024-03-02T11:36:17;19.38;;;10.00;;
82244;SDS011;71849;50.096;14.458;2024-03-02T11:38:45;19.45;;;10.73;;
82244;SDS011;71849;50.096;14.458;2024-03-02T11:41:22;16.58;;;8.27;;
82244;SDS011;71849;50.096;14.458;2024-03-02T11:43:59;18.25;;;8.38;;
82244;SDS011;71849;50.096;14.458;2024-03-02T11:46:30;16.95;;;8.00;;
82244;SDS011;71849;50.096;14.458;2024-03-02T11:48:59;15.85;;;8.15;;
82244;SDS011;71849;50.096;14.458;2024-03-02T11:51:29;21.15;;;10.00;;
82244;SDS011;71849;50.096;14.458;2024-03-02T11:54:04;17.98;;;8.35;;
82244;SDS011;71849;50.096;14.458;2024-03-02T11:56:34;16.25;;;7.72;;
82244;SDS011;71849;50.096;14.458;2024-03-02T11:59:03;17.92;;;8.73;;
82244;SDS011;71849;50.096;14.458;2024-03-02T12:01:36;15.27;;;8.55;;
82244;SDS011;71849;50.096;14.458;2024-03-02T12:04:06;15.80;;;7.97;;
82244;SDS011;71849;50.096;14.458;2024-03-02T12:06:35;16.50;;;9.07;;
82244;SDS011;71849;50.096;14.458;2024-03-02T12:11:36;14.45;;;7.25;;
82244;SDS011;71849;50.096;14.458;2024-03-02T12:14:05;16.25;;;7.50;;
82244;SDS011;71849;50.096;14.458;2024-03-02T12:16:45;16.13;;;7.80;;
82244;SDS011;71849;50.096;14.458;2024-03-02T12:19:14;15.93;;;7.65;;
82244;SDS011;71849;50.096;14.458;2024-03-02T12:21:45;14.20;;;7.30;;
82244;SDS011;71849;50.096;14.458;2024-03-02T12:24:14;16.75;;;8.45;;
82244;SDS011;71849;50.096;14.458;2024-03-02T12:26:42;14.20;;;7.18;;
82244;SDS011;71849;50.096;14.458;2024-03-02T12:29:12;20.33;;;11.10;;
82244;SDS011;71849;50.096;14.458;2024-03-02T12:31:41;18.10;;;7.65;;
82244;SDS011;71849;50.096;14.458;2024-03-02T12:34:13;16.73;;;8.70;;
82244;SDS011;71849;50.096;14.458;2024-03-02T12:36:43;17.13;;;8.63;;
82244;SDS011;71849;50.096;14.458;2024-03-02T12:39:14;14.25;;;8.38;;
82244;SDS011;71849;50.096;14.458;2024-03-02T12:41:43;17.00;;;8.07;;
82244;SDS011;71849;50.096;14.458;2024-03-02T12:44:12;18.42;;;9.30;;
82244;SDS011;71849;50.096;14.458;2024-03-02T12:46:41;16.92;;;7.75;;
82244;SDS011;71849;50.096;14.458;2024-03-02T12:49:10;14.48;;;7.57;;
82244;SDS011;71849;50.096;14.458;2024-03-02T12:51:43;15.57;;;7.75;;
82244;SDS011;71849;50.096;14.458;2024-03-02T12:54:16;18.17;;;8.10;;
82244;SDS011;71849;50.096;14.458;2024-03-02T12:56:45;14.75;;;7.82;;
82244;SDS011;71849;50.096;14.458;2024-03-02T12:59:17;15.93;;;8.32;;
82244;SDS011;71849;50.096;14.458;2024-03-02T13:01:50;14.80;;;8.20;;
82244;SDS011;71849;50.096;14.458;2024-03-02T13:04:26;15.27;;;8.63;;
82244;SDS011;71849;50.096;14.458;2024-03-02T13:06:56;15.88;;;8.45;;
82244;SDS011;71849;50.096;14.458;2024-03-02T13:09:25;17.00;;;9.50;;
82244;SDS011;71849;50.096;14.458;2024-03-02T13:11:54;16.58;;;8.43;;
82244;SDS011;71849;50.096;14.458;2024-03-02T13:14:24;15.68;;;8.10;;
82244;SDS011;71849;50.096;14.458;2024-03-02T13:16:53;14.98;;;8.13;;
82244;SDS011;71849;50.096;14.458;2024-03-02T13:19:24;15.60;;;8.13;;
82244;SDS011;71849;50.096;14.458;2024-03-02T13:21:56;15.93;;;8.50;;
82244;SDS011;71849;50.096;14.458;2024-03-02T13:24:24;15.95;;;7.78;;
82244;SDS011;71849;50.096;14.458;2024-03-02T13:26:54;18.05;;;9.65;;
82244;SDS011;71849;50.096;14.458;2024-03-02T13:29:23;16.50;;;8.93;;
82244;SDS011;71849;50.096;14.458;2024-03-02T13:31:53;19.77;;;9.95;;
82244;SDS011;71849;50.096;14.458;2024-03-02T13:36:53;19.48;;;9.00;;
82244;SDS011;71849;50.096;14.458;2024-03-02T13:39:22;16.70;;;8.98;;
82244;SDS011;71849;50.096;14.458;2024-03-02T13:41:51;17.00;;;9.65;;
82244;SDS011;71849;50.096;14.458;2024-03-02T13:44:28;17.85;;;9.35;;
82244;SDS011;71849;50.096;14.458;2024-03-02T13:46:56;18.05;;;9.98;;
82244;SDS011;71849;50.096;14.458;2024-03-02T13:49:28;16.70;;;8.85;;
82244;SDS011;71849;50.096;14.458;2024-03-02T13:51:59;17.83;;;8.85;;
82244;SDS011;71849;50.096;14.458;2024-03-02T13:54:36;17.48;;;8.35;;
82244;SDS011;71849;50.096;14.458;2024-03-02T13:57:05;16.48;;;7.80;;
82244;SDS011;71849;50.096;14.458;2024-03-02T13:59:35;16.23;;;8.68;;
82244;SDS011;71849;50.096;14.458;2024-03-02T14:02:04;16.38;;;8.32;;
82244;SDS011;71849;50.096;14.458;2024-03-02T14:04:36;18.45;;;8.02;;
82244;SDS011;71849;50.096;14.458;2024-03-02T14:07:05;18.73;;;10.20;;
82244;SDS011;71849;50.096;14.458;2024-03-02T14:09:35;16.45;;;8.43;;
82244;SDS011;71849;50.096;14.458;2024-03-02T14:12:04;23.42;;;11.88;;
82244;SDS011;71849;50.096;14.458;2024-03-02T14:14:33;17.38;;;8.48;;
82244;SDS011;71849;50.096;14.458;2024-03-02T14:17:02;16.67;;;8.98;;
82244;SDS011;71849;50.096;14.458;2024-03-02T14:19:31;17.08;;;9.07;;
82244;SDS011;71849;50.096;14.458;2024-03-02T14:22:03;18.73;;;10.02;;
82244;SDS011;71849;50.096;14.458;2024-03-02T14:24:32;19.30;;;9.27;;
82244;SDS011;71849;50.096;14.458;2024-03-02T14:27:00;21.10;;;10.15;;
82244;SDS011;71849;50.096;14.458;2024-03-02T14:29:28;18.17;;;10.10;;
82244;SDS011;71849;50.096;14.458;2024-03-02T14:32:01;18.67;;;9.52;;
82244;SDS011;71849;50.096;14.458;2024-03-02T14:34:32;23.80;;;13.27;;
82244;SDS011;71849;50.096;14.458;2024-03-02T14:37:04;18.52;;;10.05;;
82244;SDS011;71849;50.096;14.458;2024-03-02T14:39:32;18.67;;;9.23;;
82244;SDS011;71849;50.096;14.458;2024-03-02T14:42:01;20.58;;;10.50;;
82244;SDS011;71849;50.096;14.458;2024-03-02T14:44:30;18.73;;;9.82;;
82244;SDS011;71849;50.096;14.458;2024-03-02T14:46:59;19.42;;;10.05;;
82244;SDS011;71849;50.096;14.458;2024-03-02T14:49:32;19.95;;;10.02;;